createdAt,value
2018-02-18T00:00:12.011Z,72.60
2018-02-18T00:02:40.347Z,87.93
2018-02-18T00:05:08.660Z,89.97
2018-02-18T00:07:37.736Z,84.57
2018-02-18T00:10:06.018Z,79.10
2018-02-18T00:12:35.102Z,71.70
2018-02-18T00:15:06.012Z,87.17
2018-02-18T00:17:34.338Z,88.00
2018-02-18T00:20:02.719Z,85.03
2018-02-18T00:22:30.994Z,80.33
2018-02-18T00:24:59.256Z,93.67
2018-02-18T00:27:27.516Z,99.00
2018-02-18T00:29:55.778Z,80.27
2018-02-18T00:32:24.105Z,88.27
2018-02-18T00:34:52.348Z,74.83
2018-02-18T00:37:20.617Z,72.10
2018-02-18T00:39:48.871Z,71.60
2018-02-18T00:42:17.195Z,62.50
2018-02-18T00:44:45.433Z,74.27
2018-02-18T00:47:13.775Z,76.70
2018-02-18T00:49:42.025Z,77.00
2018-02-18T00:52:10.328Z,72.73
2018-02-18T00:54:38.707Z,64.20
2018-02-18T00:57:06.959Z,65.60
2018-02-18T00:59:35.227Z,86.00
2018-02-18T01:02:03.475Z,73.07
2018-02-18T01:04:31.749Z,70.47
2018-02-18T01:07:00.045Z,69.90
2018-02-18T01:09:28.270Z,77.73
2018-02-18T01:11:56.540Z,72.73
2018-02-18T01:14:24.796Z,84.40
2018-02-18T01:16:53.072Z,60.10
2018-02-18T01:19:21.380Z,72.90
2018-02-18T01:21:50.462Z,107.00
2018-02-18T01:24:18.734Z,103.17
2018-02-18T01:26:47.000Z,122.07
2018-02-18T01:29:15.300Z,106.73
2018-02-18T01:31:43.641Z,115.10
2018-02-18T01:34:11.932Z,100.37
2018-02-18T01:36:40.193Z,100.50
2018-02-18T01:39:08.486Z,83.20
2018-02-18T01:41:36.754Z,63.80
2018-02-18T01:44:05.464Z,91.13
2018-02-18T01:46:33.754Z,76.23
2018-02-18T01:49:02.001Z,67.67
2018-02-18T01:51:30.273Z,76.13
2018-02-18T01:53:58.526Z,69.70
2018-02-18T01:56:26.779Z,68.40
2018-02-18T01:58:55.812Z,73.87
2018-02-18T02:01:24.083Z,85.00
2018-02-18T02:03:52.372Z,78.40
2018-02-18T02:06:20.627Z,72.97
2018-02-18T02:08:48.910Z,61.93
2018-02-18T02:11:17.958Z,73.87
2018-02-18T02:13:46.205Z,66.53
2018-02-18T02:16:14.467Z,54.00
2018-02-18T02:18:42.758Z,50.20
2018-02-18T02:21:11.030Z,58.27
2018-02-18T02:23:39.285Z,59.10
2018-02-18T02:26:07.944Z,49.70
2018-02-18T02:28:37.010Z,60.70
2018-02-18T02:31:05.296Z,47.50
2018-02-18T02:33:34.326Z,62.33
2018-02-18T02:36:02.910Z,51.43
2018-02-18T02:38:31.960Z,50.93
2018-02-18T02:41:00.219Z,41.63
2018-02-18T02:43:29.435Z,41.37
2018-02-18T02:45:57.725Z,57.63
2018-02-18T02:48:26.027Z,55.50
2018-02-18T02:50:54.274Z,59.47
2018-02-18T02:53:22.559Z,47.73
2018-02-18T02:55:50.818Z,40.40
2018-02-18T02:58:19.103Z,51.90
2018-02-18T03:00:47.341Z,49.33
2018-02-18T03:03:15.596Z,46.37
2018-02-18T03:05:44.642Z,64.67
2018-02-18T03:08:13.053Z,48.80
2018-02-18T03:10:41.374Z,46.03
2018-02-18T03:13:09.610Z,49.73
2018-02-18T03:15:37.866Z,60.37
2018-02-18T03:18:06.133Z,51.10
2018-02-18T03:20:34.426Z,62.37
2018-02-18T03:23:02.685Z,45.20
2018-02-18T03:25:30.956Z,64.27
2018-02-18T03:28:00.156Z,48.77
2018-02-18T03:30:29.154Z,51.00
2018-02-18T03:32:57.472Z,44.77
2018-02-18T03:35:25.714Z,40.40
2018-02-18T03:37:53.974Z,47.03
2018-02-18T03:40:22.218Z,59.03
2018-02-18T03:42:51.269Z,58.20
2018-02-18T03:45:19.590Z,50.33
2018-02-18T03:47:48.635Z,42.23
2018-02-18T03:50:16.888Z,43.47
2018-02-18T03:52:45.153Z,46.10
2018-02-18T03:55:13.515Z,51.13
2018-02-18T03:57:41.763Z,48.87
2018-02-18T04:00:10.013Z,58.37
2018-02-18T04:02:38.289Z,57.73
2018-02-18T04:05:06.531Z,48.90
2018-02-18T04:07:34.831Z,46.07
2018-02-18T04:10:03.126Z,56.83
2018-02-18T04:12:31.360Z,52.57
2018-02-18T04:15:00.419Z,63.20
2018-02-18T04:17:28.705Z,39.90
2018-02-18T04:19:56.944Z,54.63
2018-02-18T04:22:25.215Z,49.13
2018-02-18T04:24:53.498Z,52.10
2018-02-18T04:27:21.774Z,40.80
2018-02-18T04:29:50.020Z,45.17
2018-02-18T04:32:19.055Z,41.03
2018-02-18T04:34:47.321Z,51.63
2018-02-18T04:37:15.615Z,49.20
2018-02-18T04:39:43.879Z,61.47
2018-02-18T04:42:12.153Z,49.00
2018-02-18T04:44:40.397Z,58.10
2018-02-18T04:47:08.781Z,54.23
2018-02-18T04:49:37.157Z,65.37
2018-02-18T04:52:05.536Z,59.73
2018-02-18T04:54:33.772Z,47.30
2018-02-18T04:57:02.973Z,55.30
2018-02-18T04:59:31.257Z,62.80
2018-02-18T05:01:59.514Z,44.87
2018-02-18T05:04:27.809Z,43.67
2018-02-18T05:06:56.075Z,63.07
2018-02-18T05:09:24.940Z,50.77
2018-02-18T05:11:53.952Z,49.47
2018-02-18T05:14:23.022Z,59.63
2018-02-18T05:16:52.025Z,46.43
2018-02-18T05:19:20.703Z,44.60
2018-02-18T05:21:49.736Z,39.03
2018-02-18T05:24:17.993Z,46.33
2018-02-18T05:26:46.264Z,34.73
2018-02-18T05:29:14.850Z,48.67
2018-02-18T05:31:43.133Z,44.03
2018-02-18T05:34:11.380Z,58.30
2018-02-18T05:36:40.425Z,63.77
2018-02-18T05:39:09.649Z,64.07
2018-02-18T05:41:37.926Z,59.57
2018-02-18T05:44:06.182Z,50.87
2018-02-18T05:46:34.430Z,42.57
2018-02-18T05:49:02.690Z,62.87
2018-02-18T05:51:31.762Z,47.37
2018-02-18T05:53:59.986Z,50.10
2018-02-18T05:56:28.265Z,40.13
2018-02-18T05:58:56.541Z,35.50
2018-02-18T06:01:25.630Z,49.40
2018-02-18T06:03:55.402Z,58.27
2018-02-18T06:06:23.675Z,49.50
2018-02-18T06:08:51.915Z,46.97
2018-02-18T06:11:20.167Z,55.17
2018-02-18T06:13:49.205Z,39.17
2018-02-18T06:16:17.483Z,57.70
2018-02-18T06:18:45.763Z,48.40
2018-02-18T06:21:14.025Z,59.93
2018-02-18T06:23:42.283Z,66.00
2018-02-18T06:26:11.303Z,54.23
2018-02-18T06:28:39.670Z,52.60
2018-02-18T06:31:07.943Z,46.07
2018-02-18T06:33:36.253Z,51.43
2018-02-18T06:36:04.535Z,49.17
2018-02-18T06:38:32.808Z,49.57
2018-02-18T06:41:01.351Z,47.50
2018-02-18T06:43:30.416Z,56.07
2018-02-18T06:45:58.693Z,59.03
2018-02-18T06:48:26.984Z,41.20
2018-02-18T06:50:56.030Z,52.07
2018-02-18T06:53:24.316Z,39.47
2018-02-18T06:55:52.607Z,44.97
2018-02-18T06:58:20.853Z,45.03
2018-02-18T07:00:49.286Z,58.57
2018-02-18T07:03:17.579Z,47.20
2018-02-18T07:05:46.582Z,51.33
2018-02-18T07:08:14.882Z,50.40
2018-02-18T07:10:43.213Z,56.03
2018-02-18T07:13:11.564Z,44.07
2018-02-18T07:15:39.980Z,53.00
2018-02-18T07:18:09.744Z,51.47
2018-02-18T07:20:38.026Z,47.67
2018-02-18T07:23:06.342Z,45.70
2018-02-18T07:25:34.594Z,45.97
2018-02-18T07:28:02.878Z,45.23
2018-02-18T07:30:31.150Z,61.97
2018-02-18T07:32:59.980Z,41.93
2018-02-18T07:35:29.024Z,52.77
2018-02-18T07:37:57.801Z,37.00
2018-02-18T07:40:26.055Z,44.20
2018-02-18T07:42:54.331Z,47.37
2018-02-18T07:45:23.927Z,46.97
2018-02-18T07:47:53.138Z,53.03
2018-02-18T07:50:21.434Z,57.67
2018-02-18T07:52:49.729Z,49.80
2018-02-18T07:55:18.611Z,45.97
2018-02-18T07:57:46.868Z,49.10
2018-02-18T08:00:15.171Z,61.93
2018-02-18T08:02:43.465Z,47.97
2018-02-18T08:05:12.080Z,54.50
2018-02-18T08:07:40.338Z,55.27
2018-02-18T08:10:08.610Z,50.40
2018-02-18T08:12:37.019Z,37.97
2018-02-18T08:15:05.309Z,64.07
2018-02-18T08:17:33.662Z,56.40
2018-02-18T08:20:02.361Z,54.20
2018-02-18T08:22:30.603Z,42.63
2018-02-18T08:25:00.045Z,50.53
2018-02-18T08:27:28.307Z,58.43
2018-02-18T08:29:57.384Z,46.10
2018-02-18T08:32:25.674Z,63.17
2018-02-18T08:34:53.914Z,64.10
2018-02-18T08:37:22.152Z,54.53
2018-02-18T08:39:51.223Z,70.73
2018-02-18T08:42:19.510Z,51.83
2018-02-18T08:44:48.583Z,61.80
2018-02-18T08:47:16.908Z,51.80
2018-02-18T08:49:45.939Z,55.17
2018-02-18T08:52:14.210Z,61.43
2018-02-18T08:54:42.720Z,61.27
2018-02-18T08:57:10.978Z,51.83
2018-02-18T08:59:39.274Z,55.40
2018-02-18T09:02:07.551Z,63.37
2018-02-18T09:04:36.372Z,60.27
2018-02-18T09:07:04.706Z,53.67
2018-02-18T09:09:32.996Z,63.80
2018-02-18T09:12:01.310Z,67.10
2018-02-18T09:14:30.412Z,57.80
2018-02-18T09:16:58.673Z,62.07
2018-02-18T09:19:27.732Z,53.27
2018-02-18T09:21:55.978Z,65.57
2018-02-18T09:24:24.283Z,55.70
2018-02-18T09:26:52.521Z,51.80
2018-02-18T09:29:20.816Z,61.43
2018-02-18T09:31:50.334Z,60.60
2018-02-18T09:34:18.608Z,61.40
2018-02-18T09:36:46.905Z,62.03
2018-02-18T09:39:15.174Z,59.47
2018-02-18T09:41:43.814Z,70.47
2018-02-18T09:44:12.145Z,67.93
2018-02-18T09:46:41.144Z,65.77
2018-02-18T09:49:09.409Z,52.80
2018-02-18T09:51:37.702Z,59.37
2018-02-18T09:54:05.994Z,62.90
2018-02-18T09:56:34.306Z,69.87
2018-02-18T09:59:02.560Z,78.50
2018-02-18T10:01:30.856Z,61.77
2018-02-18T10:03:59.107Z,73.40
2018-02-18T10:06:27.395Z,55.37
2018-02-18T10:08:55.795Z,48.73
2018-02-18T10:11:24.830Z,49.37
2018-02-18T10:13:53.134Z,42.17
2018-02-18T10:16:21.418Z,102.03
2018-02-18T10:18:49.689Z,44.77
2018-02-18T10:21:17.930Z,54.77
2018-02-18T10:23:46.190Z,46.50
2018-02-18T10:26:15.964Z,50.97
2018-02-18T10:28:44.282Z,47.13
2018-02-18T10:31:14.044Z,47.37
2018-02-18T10:33:42.314Z,47.07
2018-02-18T10:36:11.047Z,48.03
2018-02-18T10:38:39.270Z,45.50
2018-02-18T10:41:07.567Z,46.47
2018-02-18T10:43:35.852Z,45.63
2018-02-18T10:46:04.132Z,42.53
2018-02-18T10:48:32.411Z,54.97
2018-02-18T10:51:00.734Z,41.90
2018-02-18T10:53:29.031Z,43.23
2018-02-18T10:55:57.279Z,46.53
2018-02-18T10:58:26.354Z,56.93
2018-02-18T11:00:54.607Z,42.80
2018-02-18T11:03:22.845Z,61.97
2018-02-18T11:05:51.155Z,61.17
2018-02-18T11:08:20.374Z,57.60
2018-02-18T11:10:48.621Z,41.90
2018-02-18T11:13:18.040Z,52.47
2018-02-18T11:15:46.307Z,40.73
2018-02-18T11:18:14.707Z,44.63
2018-02-18T11:20:42.962Z,46.80
2018-02-18T11:23:11.241Z,43.00
2018-02-18T11:25:39.491Z,40.90
2018-02-18T11:28:07.837Z,40.43
2018-02-18T11:30:36.861Z,38.67
2018-02-18T11:33:05.184Z,49.73
2018-02-18T11:35:33.458Z,53.87
2018-02-18T11:38:02.797Z,48.00
2018-02-18T11:40:31.090Z,42.63
2018-02-18T11:43:00.163Z,45.40
2018-02-18T11:45:29.274Z,38.23
2018-02-18T11:47:57.637Z,49.27
2018-02-18T11:50:27.402Z,39.80
2018-02-18T11:52:55.690Z,70.10
2018-02-18T11:55:23.925Z,45.83
2018-02-18T11:57:52.994Z,42.00
2018-02-18T12:00:22.812Z,40.77
2018-02-18T12:02:51.355Z,68.47
2018-02-18T12:05:19.648Z,52.33
2018-02-18T12:07:47.896Z,66.87
2018-02-18T12:10:16.135Z,58.10
2018-02-18T12:12:44.447Z,60.40
2018-02-18T12:15:13.496Z,38.17
2018-02-18T12:17:41.755Z,75.53
2018-02-18T12:20:10.066Z,49.83
2018-02-18T12:22:38.309Z,39.20
2018-02-18T12:25:06.570Z,44.80
2018-02-18T12:27:34.829Z,33.53
2018-02-18T12:30:03.875Z,39.57
2018-02-18T12:32:32.108Z,39.47
2018-02-18T12:35:01.951Z,42.30
2018-02-18T12:37:30.254Z,38.00
2018-02-18T12:39:58.478Z,52.53
2018-02-18T12:42:26.765Z,42.83
2018-02-18T12:44:55.031Z,50.00
2018-02-18T12:47:23.304Z,45.70
2018-02-18T12:49:51.573Z,47.73
2018-02-18T12:52:21.205Z,33.53
2018-02-18T12:54:49.453Z,29.57
2018-02-18T12:57:18.491Z,34.17
2018-02-18T12:59:46.759Z,38.97
2018-02-18T13:02:15.012Z,24.37
2018-02-18T13:04:43.271Z,36.37
2018-02-18T13:07:11.509Z,39.57
2018-02-18T13:09:39.835Z,44.60
2018-02-18T13:12:08.852Z,32.87
2018-02-18T13:14:37.153Z,30.80
2018-02-18T13:17:05.415Z,35.27
2018-02-18T13:19:33.697Z,26.10
2018-02-18T13:22:01.980Z,30.87
2018-02-18T13:24:30.234Z,39.60
2018-02-18T13:26:58.492Z,52.93
2018-02-18T13:29:28.182Z,29.57
2018-02-18T13:31:57.181Z,32.73
2018-02-18T13:34:26.240Z,31.20
2018-02-18T13:36:54.506Z,38.10
2018-02-18T13:39:24.158Z,28.20
2018-02-18T13:41:52.467Z,28.13
2018-02-18T13:44:20.746Z,33.30
2018-02-18T13:46:49.006Z,29.10
2018-02-18T13:49:18.100Z,26.50
2018-02-18T13:51:46.362Z,41.43
2018-02-18T13:54:14.622Z,25.97
2018-02-18T13:56:42.921Z,33.33
2018-02-18T13:59:11.186Z,30.60
2018-02-18T14:01:39.472Z,19.50
2018-02-18T14:04:07.774Z,23.33
2018-02-18T14:06:36.843Z,21.60
2018-02-18T14:09:05.229Z,24.27
2018-02-18T14:11:33.470Z,28.63
2018-02-18T14:14:01.733Z,24.00
2018-02-18T14:16:30.767Z,36.13
2018-02-18T14:18:59.034Z,25.10
2018-02-18T14:21:27.318Z,24.23
2018-02-18T14:23:55.719Z,26.13
2018-02-18T14:26:24.736Z,18.17
2018-02-18T14:28:53.767Z,23.00
2018-02-18T14:31:22.035Z,26.83
2018-02-18T14:33:50.373Z,21.20
2018-02-18T14:36:20.147Z,32.00
2018-02-18T14:38:48.422Z,20.00
2018-02-18T14:44:31.291Z,38.67
2018-02-18T14:47:11.647Z,26.17
2018-02-18T14:49:51.755Z,30.83
2018-02-18T14:52:32.098Z,24.10
2018-02-18T14:55:29.837Z,20.80
2018-02-18T14:57:58.062Z,26.93
2018-02-18T15:00:26.402Z,28.13
2018-02-18T15:02:54.644Z,32.83
2018-02-18T15:05:22.908Z,22.60
2018-02-18T15:07:51.173Z,29.47
2018-02-18T15:10:19.840Z,20.23
2018-02-18T15:12:48.873Z,30.77
2018-02-18T15:15:17.171Z,21.13
2018-02-18T15:17:45.449Z,26.37
2018-02-18T15:20:13.703Z,26.33
2018-02-18T15:22:41.974Z,32.30
2018-02-18T15:25:10.235Z,36.20
2018-02-18T15:27:38.547Z,29.53
2018-02-18T15:30:07.626Z,37.93
2018-02-18T15:32:35.918Z,35.83
2018-02-18T15:35:04.166Z,42.00
2018-02-18T15:37:33.195Z,28.47
2018-02-18T15:40:01.513Z,29.27
2018-02-18T15:42:29.892Z,31.23
2018-02-18T15:44:58.936Z,25.27
2018-02-18T15:47:27.189Z,35.00
2018-02-18T15:49:55.464Z,29.60
2018-02-18T15:52:23.750Z,27.97
2018-02-18T15:54:52.021Z,31.63
2018-02-18T15:57:20.314Z,25.97
2018-02-18T15:59:48.599Z,25.90
2018-02-18T16:02:16.963Z,43.70
2018-02-18T16:04:45.305Z,30.97
2018-02-18T16:07:13.674Z,29.23
2018-02-18T16:09:41.927Z,42.47
2018-02-18T16:12:11.257Z,33.50
2018-02-18T16:14:39.512Z,32.27
2018-02-18T16:17:07.817Z,28.93
2018-02-18T16:19:36.700Z,25.37
2018-02-18T16:22:05.000Z,21.33
2018-02-18T16:24:34.096Z,28.43
2018-02-18T16:27:03.604Z,35.20
2018-02-18T16:29:32.786Z,29.70
2018-02-18T16:32:03.447Z,39.03
2018-02-18T16:34:32.811Z,38.10
2018-02-18T16:37:01.056Z,34.73
2018-02-18T16:39:29.348Z,30.57
2018-02-18T16:41:57.616Z,37.13
2018-02-18T16:44:25.863Z,42.37
2018-02-18T16:46:55.148Z,33.70
2018-02-18T16:49:24.261Z,44.63
2018-02-18T16:51:53.323Z,33.10
2018-02-18T16:54:21.662Z,38.73
2018-02-18T16:56:49.964Z,31.27
2018-02-18T16:59:18.304Z,54.70
2018-02-18T17:01:46.778Z,48.20
2018-02-18T17:04:15.817Z,28.97
2018-02-18T17:06:44.087Z,38.73
2018-02-18T17:09:12.388Z,30.13
2018-02-18T17:11:40.666Z,30.57
2018-02-18T17:14:10.443Z,22.90
2018-02-18T17:16:39.466Z,37.50
2018-02-18T17:19:07.738Z,53.73
2018-02-18T17:21:36.166Z,56.17
2018-02-18T17:24:04.377Z,39.57
2018-02-18T17:26:32.667Z,48.47
2018-02-18T17:29:00.977Z,49.13
2018-02-18T17:31:30.030Z,32.67
2018-02-18T17:33:58.382Z,29.50
2018-02-18T17:36:27.501Z,28.67
2018-02-18T17:38:55.805Z,30.13
2018-02-18T17:41:24.412Z,25.00
2018-02-18T17:44:02.731Z,36.00
2018-02-18T17:46:31.008Z,35.23
2018-02-18T17:49:00.064Z,50.87
2018-02-18T17:51:28.433Z,36.10
2018-02-18T17:53:57.590Z,41.23
2018-02-18T17:56:26.617Z,37.77
2018-02-18T17:58:54.895Z,50.77
2018-02-18T18:01:23.206Z,43.70
2018-02-18T18:03:51.586Z,47.97
2018-02-18T18:06:19.964Z,38.83
2018-02-18T18:08:48.279Z,46.80
2018-02-18T18:11:18.691Z,32.20
2018-02-18T18:13:47.990Z,36.00
2018-02-18T18:16:17.477Z,37.27
2018-02-18T18:18:46.533Z,33.83
2018-02-18T18:21:15.555Z,36.67
2018-02-18T18:23:44.171Z,43.23
2018-02-18T18:26:12.545Z,35.93
2018-02-18T18:28:40.877Z,62.47
2018-02-18T18:31:09.575Z,29.10
2018-02-18T18:33:37.842Z,41.10
2018-02-18T18:36:06.282Z,37.00
2018-02-18T18:38:34.580Z,45.60
2018-02-18T18:41:02.920Z,31.07
2018-02-18T18:43:31.390Z,32.80
2018-02-18T18:45:59.802Z,38.40
2018-02-18T18:48:28.088Z,31.00
2018-02-18T18:50:57.167Z,31.57
2018-02-18T18:53:25.536Z,26.63
2018-02-18T18:55:53.951Z,39.30
2018-02-18T18:58:23.788Z,38.80
2018-02-18T19:00:52.919Z,36.43
2018-02-18T19:03:21.438Z,35.13
2018-02-18T19:05:49.781Z,37.47
2018-02-18T19:08:18.103Z,51.33
2018-02-18T19:10:47.211Z,35.40
2018-02-18T19:13:15.506Z,60.00
2018-02-18T19:15:43.922Z,58.13
2018-02-18T19:18:12.192Z,31.50
2018-02-18T19:20:40.602Z,52.97
2018-02-18T19:23:11.296Z,36.53
2018-02-18T19:25:39.667Z,49.57
2018-02-18T19:28:08.192Z,40.97
2018-02-18T19:30:36.453Z,47.23
2018-02-18T19:33:04.814Z,59.47
2018-02-18T19:35:33.226Z,34.93
2018-02-18T19:38:01.532Z,34.63
2018-02-18T19:40:30.598Z,33.40
2018-02-18T19:42:59.106Z,31.93
2018-02-18T19:45:28.180Z,40.67
2018-02-18T19:47:56.469Z,42.97
2018-02-18T19:50:25.568Z,35.03
2018-02-18T19:52:53.878Z,43.00
2018-02-18T19:55:22.306Z,50.03
2018-02-18T19:57:51.369Z,47.97
2018-02-18T20:00:19.894Z,50.37
2018-02-18T20:02:48.998Z,50.90
2018-02-18T20:05:17.289Z,42.30
2018-02-18T20:07:45.628Z,42.83
2018-02-18T20:10:13.904Z,44.17
2018-02-18T20:12:42.256Z,44.73
2018-02-18T20:15:11.224Z,51.87
2018-02-18T20:17:39.569Z,36.20
2018-02-18T20:20:08.110Z,36.00
2018-02-18T20:22:37.672Z,38.20
2018-02-18T20:25:06.127Z,36.43
2018-02-18T20:27:34.549Z,29.10
2018-02-18T20:30:03.935Z,44.67
2018-02-18T20:32:32.261Z,43.70
2018-02-18T20:35:00.581Z,41.53
2018-02-18T20:37:28.953Z,51.57
2018-02-18T20:39:57.457Z,43.33
2018-02-18T20:42:25.760Z,45.97
2018-02-18T20:44:54.898Z,40.60
2018-02-18T20:47:23.245Z,50.43
2018-02-18T20:49:52.034Z,44.33
2018-02-18T20:52:21.359Z,34.03
2018-02-18T20:54:50.000Z,33.67
2018-02-18T20:57:18.298Z,42.17
2018-02-18T20:59:46.594Z,50.27
2018-02-18T21:02:14.951Z,37.87
2018-02-18T21:04:44.065Z,41.47
2018-02-18T21:07:12.392Z,44.23
2018-02-18T21:09:40.799Z,41.80
2018-02-18T21:12:09.070Z,54.33
2018-02-18T21:14:38.107Z,48.33
2018-02-18T21:17:06.386Z,44.20
2018-02-18T21:19:35.128Z,56.00
2018-02-18T21:22:03.391Z,50.80
2018-02-18T21:24:31.644Z,44.90
2018-02-18T21:26:59.946Z,49.50
2018-02-18T21:29:28.237Z,46.60
2018-02-18T21:31:56.523Z,50.90
2018-02-18T21:34:24.904Z,48.07
2018-02-18T21:36:53.478Z,57.87
2018-02-18T21:39:22.356Z,44.10
2018-02-18T21:41:50.954Z,40.30
2018-02-18T21:44:20.032Z,49.20
2018-02-18T21:46:49.118Z,57.77
2018-02-18T21:49:17.457Z,63.40
2018-02-18T21:51:46.578Z,53.90
2018-02-18T21:54:14.943Z,49.63
2018-02-18T21:56:43.475Z,45.03
2018-02-18T21:59:11.774Z,52.70
2018-02-18T22:01:40.823Z,47.13
2018-02-18T22:04:09.898Z,53.80
2018-02-18T22:06:38.309Z,56.23
2018-02-18T22:09:07.785Z,58.70
2018-02-18T22:11:36.076Z,54.23
2018-02-18T22:14:04.362Z,63.13
2018-02-18T22:16:32.677Z,60.37
2018-02-18T22:19:00.923Z,57.63
2018-02-18T22:21:29.199Z,46.43
2018-02-18T22:23:57.517Z,72.27
2018-02-18T22:26:26.541Z,53.63
2018-02-18T22:28:54.847Z,48.80
2018-02-18T22:31:23.141Z,61.50
2018-02-18T22:33:51.414Z,55.07
2018-02-18T22:36:19.723Z,45.37
2018-02-18T22:38:48.007Z,61.17
2018-02-18T22:41:17.076Z,52.33
2018-02-18T22:43:45.376Z,49.10
2018-02-18T22:46:13.645Z,51.07
2018-02-18T22:48:41.893Z,64.37
2018-02-18T22:51:10.139Z,56.73
2018-02-18T22:53:38.400Z,53.33
2018-02-18T22:56:07.446Z,46.87
2018-02-18T22:58:35.697Z,53.77
2018-02-18T23:01:03.988Z,42.77
2018-02-18T23:03:32.310Z,47.53
2018-02-18T23:06:01.343Z,48.47
2018-02-18T23:08:29.595Z,57.83
2018-02-18T23:10:57.889Z,48.83
2018-02-18T23:13:26.276Z,48.73
2018-02-18T23:15:54.552Z,57.90
2018-02-18T23:18:23.612Z,46.73
2018-02-18T23:21:03.752Z,59.93
2018-02-18T23:23:32.037Z,44.93
2018-02-18T23:26:00.302Z,43.10
2018-02-18T23:28:29.310Z,37.20
2018-02-18T23:30:57.568Z,47.83
2018-02-18T23:33:25.836Z,33.57
2018-02-18T23:35:54.099Z,52.00
2018-02-18T23:38:22.349Z,50.57
2018-02-18T23:40:50.626Z,64.57
2018-02-18T23:43:18.893Z,53.97
2018-02-18T23:45:47.151Z,34.17
2018-02-18T23:48:16.196Z,61.57
2018-02-18T23:50:44.459Z,38.80
2018-02-18T23:53:12.734Z,69.20
2018-02-18T23:55:41.036Z,60.23
2018-02-18T23:58:09.290Z,56.60
